sensor_id;sensor_type;location;lat;lon;timestamp;P1;durP1;ratioP1;P2;durP2;ratioP2
63714;SDS011;49858;48.956;9.076;2023-02-08T00:02:19;14.55;;;8.55;;
63714;SDS011;49858;48.956;9.076;2023-02-08T00:04:47;18.95;;;9.25;;
63714;SDS011;49858;48.956;9.076;2023-02-08T00:07:15;17.17;;;8.77;;
63714;SDS011;49858;48.956;9.076;2023-02-08T00:09:43;18.92;;;8.70;;
63714;SDS011;49858;48.956;9.076;2023-02-08T00:12:11;18.42;;;9.20;;
63714;SDS011;49858;48.956;9.076;2023-02-08T00:14:40;17.30;;;8.23;;
63714;SDS011;49858;48.956;9.076;2023-02-08T00:17:08;16.08;;;9.13;;
63714;SDS011;49858;48.956;9.076;2023-02-08T00:19:35;15.63;;;8.32;;
63714;SDS011;49858;48.956;9.076;2023-02-08T00:22:03;16.92;;;8.23;;
63714;SDS011;49858;48.956;9.076;2023-02-08T00:24:31;18.60;;;8.55;;
63714;SDS011;49858;48.956;9.076;2023-02-08T00:26:59;16.00;;;8.02;;
63714;SDS011;49858;48.956;9.076;2023-02-08T00:29:26;14.70;;;6.97;;
63714;SDS011;49858;48.956;9.076;2023-02-08T00:31:56;13.18;;;7.07;;
63714;SDS011;49858;48.956;9.076;2023-02-08T00:34:23;15.43;;;6.43;;
63714;SDS011;49858;48.956;9.076;2023-02-08T00:36:51;15.55;;;7.57;;
63714;SDS011;49858;48.956;9.076;2023-02-08T00:39:19;16.75;;;7.15;;
63714;SDS011;49858;48.956;9.076;2023-02-08T00:41:50;16.10;;;8.13;;
63714;SDS011;49858;48.956;9.076;2023-02-08T00:44:18;14.95;;;7.28;;
63714;SDS011;49858;48.956;9.076;2023-02-08T00:46:46;16.25;;;6.85;;
63714;SDS011;49858;48.956;9.076;2023-02-08T00:49:15;14.98;;;6.47;;
63714;SDS011;49858;48.956;9.076;2023-02-08T00:51:43;13.20;;;6.30;;
63714;SDS011;49858;48.956;9.076;2023-02-08T00:54:11;13.98;;;7.25;;
63714;SDS011;49858;48.956;9.076;2023-02-08T00:56:40;11.88;;;6.55;;
63714;SDS011;49858;48.956;9.076;2023-02-08T00:59:08;16.27;;;7.80;;
63714;SDS011;49858;48.956;9.076;2023-02-08T01:01:35;17.90;;;7.72;;
63714;SDS011;49858;48.956;9.076;2023-02-08T01:04:04;12.38;;;6.90;;
63714;SDS011;49858;48.956;9.076;2023-02-08T01:06:34;13.95;;;6.97;;
63714;SDS011;49858;48.956;9.076;2023-02-08T01:09:02;17.73;;;7.40;;
63714;SDS011;49858;48.956;9.076;2023-02-08T01:11:29;16.08;;;7.78;;
63714;SDS011;49858;48.956;9.076;2023-02-08T01:13:58;19.52;;;8.30;;
63714;SDS011;49858;48.956;9.076;2023-02-08T01:16:27;14.48;;;7.63;;
63714;SDS011;49858;48.956;9.076;2023-02-08T01:18:58;14.98;;;7.40;;
63714;SDS011;49858;48.956;9.076;2023-02-08T01:21:28;14.50;;;7.38;;
63714;SDS011;49858;48.956;9.076;2023-02-08T01:23:59;11.65;;;6.43;;
63714;SDS011;49858;48.956;9.076;2023-02-08T01:26:28;15.43;;;7.50;;
63714;SDS011;49858;48.956;9.076;2023-02-08T01:28:59;11.75;;;5.95;;
63714;SDS011;49858;48.956;9.076;2023-02-08T01:31:28;17.58;;;7.75;;
63714;SDS011;49858;48.956;9.076;2023-02-08T01:33:58;14.35;;;7.72;;
63714;SDS011;49858;48.956;9.076;2023-02-08T01:36:27;12.25;;;6.55;;
63714;SDS011;49858;48.956;9.076;2023-02-08T01:38:56;14.77;;;6.78;;
63714;SDS011;49858;48.956;9.076;2023-02-08T01:41:26;17.35;;;8.40;;
63714;SDS011;49858;48.956;9.076;2023-02-08T01:43:58;13.20;;;6.88;;
63714;SDS011;49858;48.956;9.076;2023-02-08T01:46:30;12.93;;;6.45;;
63714;SDS011;49858;48.956;9.076;2023-02-08T01:48:59;13.80;;;6.75;;
63714;SDS011;49858;48.956;9.076;2023-02-08T01:51:31;18.88;;;7.70;;
63714;SDS011;49858;48.956;9.076;2023-02-08T01:54:03;15.27;;;7.47;;
63714;SDS011;49858;48.956;9.076;2023-02-08T01:56:35;17.95;;;7.60;;
63714;SDS011;49858;48.956;9.076;2023-02-08T01:59:07;16.70;;;7.93;;
63714;SDS011;49858;48.956;9.076;2023-02-08T02:01:40;17.92;;;7.68;;
63714;SDS011;49858;48.956;9.076;2023-02-08T02:04:09;13.15;;;6.75;;
63714;SDS011;49858;48.956;9.076;2023-02-08T02:06:40;14.32;;;8.68;;
63714;SDS011;49858;48.956;9.076;2023-02-08T02:09:13;19.20;;;7.53;;
63714;SDS011;49858;48.956;9.076;2023-02-08T02:11:47;16.95;;;7.75;;
63714;SDS011;49858;48.956;9.076;2023-02-08T02:14:16;15.52;;;8.65;;
63714;SDS011;49858;48.956;9.076;2023-02-08T02:16:45;17.50;;;7.53;;
63714;SDS011;49858;48.956;9.076;2023-02-08T02:19:14;17.10;;;7.80;;
63714;SDS011;49858;48.956;9.076;2023-02-08T02:21:53;19.13;;;8.88;;
63714;SDS011;49858;48.956;9.076;2023-02-08T02:24:49;19.40;;;9.77;;
63714;SDS011;49858;48.956;9.076;2023-02-08T02:27:33;17.40;;;9.68;;
63714;SDS011;49858;48.956;9.076;2023-02-08T02:33:32;23.58;;;9.45;;
63714;SDS011;49858;48.956;9.076;2023-02-08T02:36:13;15.20;;;8.68;;
63714;SDS011;49858;48.956;9.076;2023-02-08T02:38:48;19.63;;;10.40;;
63714;SDS011;49858;48.956;9.076;2023-02-08T02:41:32;19.40;;;9.88;;
63714;SDS011;49858;48.956;9.076;2023-02-08T02:44:24;14.40;;;8.52;;
63714;SDS011;49858;48.956;9.076;2023-02-08T02:47:02;23.98;;;9.65;;
63714;SDS011;49858;48.956;9.076;2023-02-08T02:52:10;17.00;;;9.05;;
63714;SDS011;49858;48.956;9.076;2023-02-08T02:54:42;18.40;;;9.13;;
63714;SDS011;49858;48.956;9.076;2023-02-08T02:57:14;16.02;;;9.13;;
63714;SDS011;49858;48.956;9.076;2023-02-08T02:59:45;15.63;;;8.70;;
63714;SDS011;49858;48.956;9.076;2023-02-08T03:02:13;21.70;;;10.27;;
63714;SDS011;49858;48.956;9.076;2023-02-08T03:04:47;25.17;;;11.23;;
63714;SDS011;49858;48.956;9.076;2023-02-08T03:07:20;23.95;;;10.07;;
63714;SDS011;49858;48.956;9.076;2023-02-08T03:10:01;11.52;;;7.78;;
63714;SDS011;49858;48.956;9.076;2023-02-08T03:12:39;17.45;;;9.10;;
63714;SDS011;49858;48.956;9.076;2023-02-08T03:15:17;14.02;;;8.40;;
63714;SDS011;49858;48.956;9.076;2023-02-08T03:17:59;22.17;;;10.60;;
63714;SDS011;49858;48.956;9.076;2023-02-08T03:20:40;23.20;;;10.27;;
63714;SDS011;49858;48.956;9.076;2023-02-08T03:23:13;23.90;;;10.63;;
63714;SDS011;49858;48.956;9.076;2023-02-08T03:25:47;21.10;;;8.98;;
63714;SDS011;49858;48.956;9.076;2023-02-08T03:28:19;19.88;;;8.85;;
63714;SDS011;49858;48.956;9.076;2023-02-08T03:30:52;20.02;;;9.77;;
63714;SDS011;49858;48.956;9.076;2023-02-08T03:33:30;15.88;;;8.30;;
63714;SDS011;49858;48.956;9.076;2023-02-08T03:36:04;18.15;;;9.98;;
63714;SDS011;49858;48.956;9.076;2023-02-08T03:38:40;14.43;;;9.05;;
63714;SDS011;49858;48.956;9.076;2023-02-08T03:41:11;19.83;;;9.93;;
63714;SDS011;49858;48.956;9.076;2023-02-08T03:43:41;20.83;;;9.73;;
63714;SDS011;49858;48.956;9.076;2023-02-08T03:46:15;25.98;;;10.77;;
63714;SDS011;49858;48.956;9.076;2023-02-08T03:48:50;19.13;;;11.15;;
63714;SDS011;49858;48.956;9.076;2023-02-08T03:51:22;24.05;;;10.93;;
63714;SDS011;49858;48.956;9.076;2023-02-08T03:53:52;21.13;;;10.73;;
63714;SDS011;49858;48.956;9.076;2023-02-08T03:56:24;24.55;;;11.15;;
63714;SDS011;49858;48.956;9.076;2023-02-08T03:59:01;24.45;;;10.82;;
63714;SDS011;49858;48.956;9.076;2023-02-08T04:01:32;19.33;;;10.13;;
63714;SDS011;49858;48.956;9.076;2023-02-08T04:04:08;21.13;;;10.18;;
63714;SDS011;49858;48.956;9.076;2023-02-08T04:06:40;24.48;;;10.00;;
63714;SDS011;49858;48.956;9.076;2023-02-08T04:09:08;21.42;;;9.48;;
63714;SDS011;49858;48.956;9.076;2023-02-08T04:11:35;20.23;;;9.57;;
63714;SDS011;49858;48.956;9.076;2023-02-08T04:14:03;23.33;;;10.20;;
63714;SDS011;49858;48.956;9.076;2023-02-08T04:16:31;18.75;;;9.98;;
63714;SDS011;49858;48.956;9.076;2023-02-08T04:18:59;21.15;;;9.23;;
63714;SDS011;49858;48.956;9.076;2023-02-08T04:21:26;18.40;;;10.13;;
63714;SDS011;49858;48.956;9.076;2023-02-08T04:23:56;23.35;;;10.82;;
63714;SDS011;49858;48.956;9.076;2023-02-08T04:26:23;14.10;;;8.40;;
63714;SDS011;49858;48.956;9.076;2023-02-08T04:28:51;25.17;;;11.57;;
63714;SDS011;49858;48.956;9.076;2023-02-08T04:31:19;19.88;;;9.70;;
63714;SDS011;49858;48.956;9.076;2023-02-08T04:33:47;24.67;;;9.60;;
63714;SDS011;49858;48.956;9.076;2023-02-08T04:36:15;16.40;;;8.60;;
63714;SDS011;49858;48.956;9.076;2023-02-08T04:38:42;21.98;;;9.68;;
63714;SDS011;49858;48.956;9.076;2023-02-08T04:41:12;16.98;;;9.27;;
63714;SDS011;49858;48.956;9.076;2023-02-08T04:43:39;21.77;;;9.18;;
63714;SDS011;49858;48.956;9.076;2023-02-08T04:46:07;17.73;;;8.98;;
63714;SDS011;49858;48.956;9.076;2023-02-08T04:48:35;21.52;;;9.48;;
63714;SDS011;49858;48.956;9.076;2023-02-08T04:51:03;21.95;;;9.25;;
63714;SDS011;49858;48.956;9.076;2023-02-08T04:53:31;21.52;;;8.93;;
63714;SDS011;49858;48.956;9.076;2023-02-08T04:55:59;20.63;;;9.68;;
63714;SDS011;49858;48.956;9.076;2023-02-08T04:58:28;17.45;;;9.27;;
63714;SDS011;49858;48.956;9.076;2023-02-08T05:00:56;21.17;;;11.25;;
63714;SDS011;49858;48.956;9.076;2023-02-08T05:03:24;22.92;;;9.57;;
63714;SDS011;49858;48.956;9.076;2023-02-08T05:05:55;18.05;;;8.82;;
63714;SDS011;49858;48.956;9.076;2023-02-08T05:08:23;23.25;;;11.00;;
63714;SDS011;49858;48.956;9.076;2023-02-08T05:10:54;21.27;;;10.73;;
63714;SDS011;49858;48.956;9.076;2023-02-08T05:13:22;17.52;;;7.63;;
63714;SDS011;49858;48.956;9.076;2023-02-08T05:15:51;18.23;;;9.48;;
63714;SDS011;49858;48.956;9.076;2023-02-08T05:18:20;19.52;;;10.38;;
63714;SDS011;49858;48.956;9.076;2023-02-08T05:20:54;16.35;;;8.50;;
63714;SDS011;49858;48.956;9.076;2023-02-08T05:23:23;18.83;;;8.90;;
63714;SDS011;49858;48.956;9.076;2023-02-08T05:25:51;19.92;;;8.40;;
63714;SDS011;49858;48.956;9.076;2023-02-08T05:28:21;24.73;;;9.20;;
63714;SDS011;49858;48.956;9.076;2023-02-08T05:30:50;21.42;;;10.32;;
63714;SDS011;49858;48.956;9.076;2023-02-08T05:33:18;18.88;;;8.48;;
63714;SDS011;49858;48.956;9.076;2023-02-08T05:35:46;27.90;;;10.10;;
63714;SDS011;49858;48.956;9.076;2023-02-08T05:38:14;18.95;;;8.35;;
63714;SDS011;49858;48.956;9.076;2023-02-08T05:40:43;18.17;;;9.90;;
63714;SDS011;49858;48.956;9.076;2023-02-08T05:43:11;17.90;;;9.27;;
63714;SDS011;49858;48.956;9.076;2023-02-08T05:45:39;22.27;;;8.35;;
63714;SDS011;49858;48.956;9.076;2023-02-08T05:48:08;22.15;;;10.32;;
63714;SDS011;49858;48.956;9.076;2023-02-08T05:50:36;19.52;;;10.05;;
63714;SDS011;49858;48.956;9.076;2023-02-08T05:53:08;28.17;;;11.73;;
63714;SDS011;49858;48.956;9.076;2023-02-08T05:55:36;21.33;;;11.23;;
63714;SDS011;49858;48.956;9.076;2023-02-08T05:58:03;25.30;;;12.43;;
63714;SDS011;49858;48.956;9.076;2023-02-08T06:00:31;22.95;;;11.25;;
63714;SDS011;49858;48.956;9.076;2023-02-08T06:02:59;24.27;;;11.82;;
63714;SDS011;49858;48.956;9.076;2023-02-08T06:05:28;26.40;;;12.77;;
63714;SDS011;49858;48.956;9.076;2023-02-08T06:07:56;22.30;;;10.85;;
63714;SDS011;49858;48.956;9.076;2023-02-08T06:10:24;22.55;;;11.00;;
63714;SDS011;49858;48.956;9.076;2023-02-08T06:12:52;19.83;;;10.65;;
63714;SDS011;49858;48.956;9.076;2023-02-08T06:15:19;17.83;;;9.27;;
63714;SDS011;49858;48.956;9.076;2023-02-08T06:17:47;21.85;;;10.15;;
63714;SDS011;49858;48.956;9.076;2023-02-08T06:20:15;25.88;;;11.25;;
63714;SDS011;49858;48.956;9.076;2023-02-08T06:22:45;26.17;;;12.70;;
63714;SDS011;49858;48.956;9.076;2023-02-08T06:25:12;23.55;;;12.20;;
63714;SDS011;49858;48.956;9.076;2023-02-08T06:27:40;29.75;;;15.82;;
63714;SDS011;49858;48.956;9.076;2023-02-08T06:30:08;28.15;;;17.75;;
63714;SDS011;49858;48.956;9.076;2023-02-08T06:32:37;26.27;;;14.75;;
63714;SDS011;49858;48.956;9.076;2023-02-08T06:35:05;21.83;;;11.70;;
63714;SDS011;49858;48.956;9.076;2023-02-08T06:37:36;26.67;;;11.43;;
63714;SDS011;49858;48.956;9.076;2023-02-08T06:40:06;24.73;;;12.43;;
63714;SDS011;49858;48.956;9.076;2023-02-08T06:42:35;21.05;;;10.43;;
63714;SDS011;49858;48.956;9.076;2023-02-08T06:45:03;21.17;;;9.80;;
63714;SDS011;49858;48.956;9.076;2023-02-08T06:47:34;21.55;;;9.20;;
63714;SDS011;49858;48.956;9.076;2023-02-08T06:50:02;28.27;;;12.88;;
63714;SDS011;49858;48.956;9.076;2023-02-08T06:52:30;25.67;;;10.55;;
63714;SDS011;49858;48.956;9.076;2023-02-08T06:54:58;15.25;;;8.98;;
63714;SDS011;49858;48.956;9.076;2023-02-08T06:57:28;17.52;;;9.98;;
63714;SDS011;49858;48.956;9.076;2023-02-08T06:59:56;22.52;;;10.82;;
63714;SDS011;49858;48.956;9.076;2023-02-08T07:02:23;18.50;;;10.55;;
63714;SDS011;49858;48.956;9.076;2023-02-08T07:04:51;24.05;;;11.20;;
63714;SDS011;49858;48.956;9.076;2023-02-08T07:07:19;20.48;;;9.80;;
63714;SDS011;49858;48.956;9.076;2023-02-08T07:09:47;22.65;;;11.38;;
63714;SDS011;49858;48.956;9.076;2023-02-08T07:12:15;20.13;;;8.23;;
63714;SDS011;49858;48.956;9.076;2023-02-08T07:14:44;21.75;;;10.45;;
63714;SDS011;49858;48.956;9.076;2023-02-08T07:17:11;19.80;;;12.32;;
63714;SDS011;49858;48.956;9.076;2023-02-08T07:19:39;14.02;;;8.02;;
63714;SDS011;49858;48.956;9.076;2023-02-08T07:22:07;19.55;;;9.82;;
63714;SDS011;49858;48.956;9.076;2023-02-08T07:24:35;17.05;;;8.32;;
63714;SDS011;49858;48.956;9.076;2023-02-08T07:27:08;14.02;;;6.30;;
63714;SDS011;49858;48.956;9.076;2023-02-08T07:29:38;22.38;;;11.13;;
63714;SDS011;49858;48.956;9.076;2023-02-08T07:32:08;23.40;;;10.43;;
63714;SDS011;49858;48.956;9.076;2023-02-08T07:34:38;19.73;;;10.95;;
63714;SDS011;49858;48.956;9.076;2023-02-08T07:37:06;30.45;;;12.27;;
63714;SDS011;49858;48.956;9.076;2023-02-08T07:39:34;24.40;;;12.88;;
63714;SDS011;49858;48.956;9.076;2023-02-08T07:42:02;15.90;;;7.10;;
63714;SDS011;49858;48.956;9.076;2023-02-08T07:44:38;13.35;;;6.70;;
63714;SDS011;49858;48.956;9.076;2023-02-08T07:47:07;30.80;;;12.82;;
63714;SDS011;49858;48.956;9.076;2023-02-08T07:49:37;22.48;;;9.35;;
63714;SDS011;49858;48.956;9.076;2023-02-08T07:52:04;19.73;;;10.57;;
63714;SDS011;49858;48.956;9.076;2023-02-08T07:54:33;20.38;;;9.50;;
63714;SDS011;49858;48.956;9.076;2023-02-08T07:57:00;19.00;;;10.60;;
63714;SDS011;49858;48.956;9.076;2023-02-08T07:59:29;21.15;;;9.75;;
63714;SDS011;49858;48.956;9.076;2023-02-08T08:01:57;21.67;;;10.75;;
63714;SDS011;49858;48.956;9.076;2023-02-08T08:04:26;19.45;;;9.82;;
63714;SDS011;49858;48.956;9.076;2023-02-08T08:06:54;22.70;;;10.82;;
63714;SDS011;49858;48.956;9.076;2023-02-08T08:09:22;23.38;;;10.65;;
63714;SDS011;49858;48.956;9.076;2023-02-08T08:11:50;27.45;;;10.38;;
63714;SDS011;49858;48.956;9.076;2023-02-08T08:14:17;28.45;;;11.38;;
63714;SDS011;49858;48.956;9.076;2023-02-08T08:16:45;24.88;;;10.15;;
63714;SDS011;49858;48.956;9.076;2023-02-08T08:19:13;23.77;;;12.32;;
63714;SDS011;49858;48.956;9.076;2023-02-08T08:21:42;23.08;;;12.57;;
63714;SDS011;49858;48.956;9.076;2023-02-08T08:24:10;24.73;;;10.80;;
63714;SDS011;49858;48.956;9.076;2023-02-08T08:26:38;20.63;;;10.48;;
63714;SDS011;49858;48.956;9.076;2023-02-08T08:29:05;25.65;;;13.27;;
63714;SDS011;49858;48.956;9.076;2023-02-08T08:31:33;25.35;;;12.70;;
63714;SDS011;49858;48.956;9.076;2023-02-08T08:34:02;26.27;;;12.90;;
63714;SDS011;49858;48.956;9.076;2023-02-08T08:36:29;25.85;;;12.82;;
63714;SDS011;49858;48.956;9.076;2023-02-08T08:38:59;25.60;;;13.13;;
63714;SDS011;49858;48.956;9.076;2023-02-08T08:41:27;24.48;;;14.23;;
63714;SDS011;49858;48.956;9.076;2023-02-08T08:43:54;24.15;;;12.75;;
63714;SDS011;49858;48.956;9.076;2023-02-08T08:46:22;23.48;;;12.18;;
63714;SDS011;49858;48.956;9.076;2023-02-08T08:48:51;24.10;;;12.35;;
63714;SDS011;49858;48.956;9.076;2023-02-08T08:51:18;29.63;;;13.80;;
63714;SDS011;49858;48.956;9.076;2023-02-08T08:53:46;22.52;;;11.57;;
63714;SDS011;49858;48.956;9.076;2023-02-08T08:56:15;24.08;;;12.10;;
63714;SDS011;49858;48.956;9.076;2023-02-08T08:58:43;33.33;;;13.32;;
63714;SDS011;49858;48.956;9.076;2023-02-08T09:01:12;21.13;;;11.30;;
63714;SDS011;49858;48.956;9.076;2023-02-08T09:03:40;22.08;;;11.18;;
63714;SDS011;49858;48.956;9.076;2023-02-08T09:06:08;27.35;;;11.18;;
63714;SDS011;49858;48.956;9.076;2023-02-08T09:08:36;20.58;;;11.65;;
63714;SDS011;49858;48.956;9.076;2023-02-08T09:11:08;25.35;;;10.85;;
63714;SDS011;49858;48.956;9.076;2023-02-08T09:13:39;23.60;;;10.52;;
63714;SDS011;49858;48.956;9.076;2023-02-08T09:16:08;24.33;;;11.52;;
63714;SDS011;49858;48.956;9.076;2023-02-08T09:18:38;22.90;;;12.05;;
63714;SDS011;49858;48.956;9.076;2023-02-08T09:21:06;26.38;;;12.00;;
63714;SDS011;49858;48.956;9.076;2023-02-08T09:23:36;22.10;;;11.45;;
63714;SDS011;49858;48.956;9.076;2023-02-08T09:26:04;24.17;;;11.40;;
63714;SDS011;49858;48.956;9.076;2023-02-08T09:28:34;25.65;;;11.35;;
63714;SDS011;49858;48.956;9.076;2023-02-08T09:31:07;25.40;;;11.32;;
63714;SDS011;49858;48.956;9.076;2023-02-08T09:33:36;21.80;;;10.07;;
63714;SDS011;49858;48.956;9.076;2023-02-08T09:36:04;25.77;;;11.75;;
63714;SDS011;49858;48.956;9.076;2023-02-08T09:38:33;22.98;;;12.10;;
63714;SDS011;49858;48.956;9.076;2023-02-08T09:41:03;26.50;;;11.07;;
63714;SDS011;49858;48.956;9.076;2023-02-08T09:43:39;21.50;;;10.52;;
63714;SDS011;49858;48.956;9.076;2023-02-08T09:46:14;24.70;;;12.40;;
63714;SDS011;49858;48.956;9.076;2023-02-08T09:48:44;23.73;;;11.57;;
63714;SDS011;49858;48.956;9.076;2023-02-08T09:51:16;24.95;;;11.40;;
63714;SDS011;49858;48.956;9.076;2023-02-08T09:53:52;23.08;;;10.63;;
63714;SDS011;49858;48.956;9.076;2023-02-08T09:56:25;23.00;;;12.55;;
63714;SDS011;49858;48.956;9.076;2023-02-08T09:58:56;21.00;;;11.32;;
63714;SDS011;49858;48.956;9.076;2023-02-08T10:01:28;26.23;;;11.35;;
63714;SDS011;49858;48.956;9.076;2023-02-08T10:03:58;21.52;;;10.50;;
63714;SDS011;49858;48.956;9.076;2023-02-08T10:06:32;18.20;;;10.75;;
63714;SDS011;49858;48.956;9.076;2023-02-08T10:09:01;21.45;;;12.05;;
63714;SDS011;49858;48.956;9.076;2023-02-08T10:11:39;19.95;;;10.45;;
63714;SDS011;49858;48.956;9.076;2023-02-08T10:14:23;20.42;;;9.88;;
63714;SDS011;49858;48.956;9.076;2023-02-08T10:17:01;19.88;;;9.65;;
63714;SDS011;49858;48.956;9.076;2023-02-08T10:19:48;18.88;;;9.80;;
63714;SDS011;49858;48.956;9.076;2023-02-08T10:22:30;20.85;;;9.82;;
63714;SDS011;49858;48.956;9.076;2023-02-08T10:28:15;16.85;;;7.55;;
63714;SDS011;49858;48.956;9.076;2023-02-08T10:30:56;17.30;;;8.95;;
63714;SDS011;49858;48.956;9.076;2023-02-08T10:33:34;21.20;;;10.43;;
63714;SDS011;49858;48.956;9.076;2023-02-08T10:36:10;15.55;;;8.48;;
63714;SDS011;49858;48.956;9.076;2023-02-08T10:38:42;17.85;;;9.43;;
63714;SDS011;49858;48.956;9.076;2023-02-08T10:41:14;22.40;;;10.27;;
63714;SDS011;49858;48.956;9.076;2023-02-08T10:43:48;18.67;;;9.20;;
63714;SDS011;49858;48.956;9.076;2023-02-08T10:46:24;20.17;;;10.10;;
63714;SDS011;49858;48.956;9.076;2023-02-08T10:49:01;17.88;;;9.07;;
63714;SDS011;49858;48.956;9.076;2023-02-08T10:51:34;18.50;;;9.48;;
63714;SDS011;49858;48.956;9.076;2023-02-08T10:54:02;17.35;;;10.43;;
63714;SDS011;49858;48.956;9.076;2023-02-08T10:56:35;20.65;;;9.98;;
63714;SDS011;49858;48.956;9.076;2023-02-08T10:59:12;22.33;;;10.50;;
63714;SDS011;49858;48.956;9.076;2023-02-08T11:01:43;17.60;;;9.98;;
63714;SDS011;49858;48.956;9.076;2023-02-08T11:04:14;20.13;;;10.07;;
63714;SDS011;49858;48.956;9.076;2023-02-08T11:06:44;18.42;;;10.55;;
63714;SDS011;49858;48.956;9.076;2023-02-08T11:09:23;18.50;;;10.55;;
63714;SDS011;49858;48.956;9.076;2023-02-08T11:11:54;15.98;;;9.70;;
63714;SDS011;49858;48.956;9.076;2023-02-08T11:14:24;15.82;;;8.50;;
63714;SDS011;49858;48.956;9.076;2023-02-08T11:17:22;16.60;;;8.88;;
63714;SDS011;49858;48.956;9.076;2023-02-08T11:19:54;17.70;;;9.13;;
63714;SDS011;49858;48.956;9.076;2023-02-08T11:22:23;17.48;;;8.27;;
63714;SDS011;49858;48.956;9.076;2023-02-08T11:24:56;20.60;;;9.40;;
63714;SDS011;49858;48.956;9.076;2023-02-08T11:27:30;15.95;;;9.18;;
63714;SDS011;49858;48.956;9.076;2023-02-08T11:30:21;16.02;;;8.30;;
63714;SDS011;49858;48.956;9.076;2023-02-08T11:38:42;16.42;;;8.55;;
63714;SDS011;49858;48.956;9.076;2023-02-08T11:41:13;17.70;;;8.75;;
63714;SDS011;49858;48.956;9.076;2023-02-08T11:46:21;14.55;;;7.88;;
63714;SDS011;49858;48.956;9.076;2023-02-08T11:48:50;11.80;;;7.15;;
63714;SDS011;49858;48.956;9.076;2023-02-08T11:51:24;18.75;;;9.30;;
63714;SDS011;49858;48.956;9.076;2023-02-08T11:53:54;17.13;;;8.85;;
63714;SDS011;49858;48.956;9.076;2023-02-08T11:56:24;13.25;;;7.18;;
63714;SDS011;49858;48.956;9.076;2023-02-08T11:58:54;13.75;;;7.32;;
63714;SDS011;49858;48.956;9.076;2023-02-08T12:01:28;19.35;;;8.40;;
63714;SDS011;49858;48.956;9.076;2023-02-08T12:03:58;12.88;;;7.72;;
63714;SDS011;49858;48.956;9.076;2023-02-08T12:09:41;15.88;;;7.35;;
63714;SDS011;49858;48.956;9.076;2023-02-08T12:12:27;14.80;;;7.40;;
63714;SDS011;49858;48.956;9.076;2023-02-08T12:15:06;13.50;;;7.32;;
63714;SDS011;49858;48.956;9.076;2023-02-08T12:17:52;11.98;;;6.97;;
63714;SDS011;49858;48.956;9.076;2023-02-08T12:20:32;14.57;;;7.30;;
63714;SDS011;49858;48.956;9.076;2023-02-08T12:23:19;13.95;;;7.03;;
63714;SDS011;49858;48.956;9.076;2023-02-08T12:26:01;13.82;;;6.75;;
63714;SDS011;49858;48.956;9.076;2023-02-08T12:28:38;12.95;;;6.13;;
63714;SDS011;49858;48.956;9.076;2023-02-08T12:31:19;11.25;;;6.65;;
63714;SDS011;49858;48.956;9.076;2023-02-08T12:33:58;16.77;;;6.65;;
63714;SDS011;49858;48.956;9.076;2023-02-08T12:36:36;12.73;;;6.72;;
63714;SDS011;49858;48.956;9.076;2023-02-08T12:39:38;16.27;;;6.82;;
63714;SDS011;49858;48.956;9.076;2023-02-08T12:42:32;11.27;;;6.28;;
63714;SDS011;49858;48.956;9.076;2023-02-08T12:45:16;10.02;;;6.05;;
63714;SDS011;49858;48.956;9.076;2023-02-08T12:50:39;11.43;;;5.60;;
63714;SDS011;49858;48.956;9.076;2023-02-08T12:53:17;11.50;;;5.43;;
63714;SDS011;49858;48.956;9.076;2023-02-08T12:55:52;13.77;;;5.82;;
63714;SDS011;49858;48.956;9.076;2023-02-08T12:58:25;10.20;;;6.07;;
63714;SDS011;49858;48.956;9.076;2023-02-08T13:00:57;11.90;;;5.15;;
63714;SDS011;49858;48.956;9.076;2023-02-08T13:03:36;10.40;;;5.38;;
63714;SDS011;49858;48.956;9.076;2023-02-08T13:06:12;9.15;;;5.75;;
63714;SDS011;49858;48.956;9.076;2023-02-08T13:08:45;9.43;;;4.90;;
63714;SDS011;49858;48.956;9.076;2023-02-08T13:11:20;10.83;;;5.20;;
63714;SDS011;49858;48.956;9.076;2023-02-08T13:13:55;10.57;;;5.32;;
63714;SDS011;49858;48.956;9.076;2023-02-08T13:16:29;11.02;;;5.20;;
63714;SDS011;49858;48.956;9.076;2023-02-08T13:19:06;10.85;;;5.43;;
63714;SDS011;49858;48.956;9.076;2023-02-08T13:21:48;7.85;;;4.50;;
63714;SDS011;49858;48.956;9.076;2023-02-08T13:24:21;9.68;;;4.55;;
63714;SDS011;49858;48.956;9.076;2023-02-08T13:26:59;13.60;;;4.68;;
63714;SDS011;49858;48.956;9.076;2023-02-08T13:29:27;10.20;;;4.90;;
63714;SDS011;49858;48.956;9.076;2023-02-08T13:31:59;7.43;;;4.20;;
63714;SDS011;49858;48.956;9.076;2023-02-08T13:34:31;8.40;;;4.30;;
63714;SDS011;49858;48.956;9.076;2023-02-08T13:37:03;5.90;;;3.75;;
63714;SDS011;49858;48.956;9.076;2023-02-08T13:39:48;9.65;;;5.18;;
63714;SDS011;49858;48.956;9.076;2023-02-08T13:42:27;10.70;;;5.05;;
63714;SDS011;49858;48.956;9.076;2023-02-08T13:44:57;8.73;;;4.50;;
63714;SDS011;49858;48.956;9.076;2023-02-08T13:47:27;9.10;;;4.90;;
63714;SDS011;49858;48.956;9.076;2023-02-08T13:49:57;7.43;;;3.50;;
63714;SDS011;49858;48.956;9.076;2023-02-08T13:52:46;8.27;;;3.67;;
63714;SDS011;49858;48.956;9.076;2023-02-08T14:01:14;9.53;;;4.07;;
63714;SDS011;49858;48.956;9.076;2023-02-08T14:03:45;7.68;;;4.45;;
63714;SDS011;49858;48.956;9.076;2023-02-08T14:07:00;8.63;;;4.28;;
63714;SDS011;49858;48.956;9.076;2023-02-08T14:09:38;7.28;;;3.58;;
63714;SDS011;49858;48.956;9.076;2023-02-08T14:12:14;7.35;;;3.75;;
63714;SDS011;49858;48.956;9.076;2023-02-08T14:17:50;8.68;;;4.80;;
63714;SDS011;49858;48.956;9.076;2023-02-08T14:20:25;9.45;;;4.38;;
63714;SDS011;49858;48.956;9.076;2023-02-08T14:22:58;9.88;;;4.10;;
63714;SDS011;49858;48.956;9.076;2023-02-08T14:25:29;8.80;;;4.10;;
63714;SDS011;49858;48.956;9.076;2023-02-08T14:28:15;7.07;;;3.90;;
63714;SDS011;49858;48.956;9.076;2023-02-08T14:30:50;8.35;;;4.07;;
63714;SDS011;49858;48.956;9.076;2023-02-08T14:33:22;11.07;;;5.00;;
63714;SDS011;49858;48.956;9.076;2023-02-08T14:35:54;7.75;;;4.00;;
63714;SDS011;49858;48.956;9.076;2023-02-08T14:50:26;10.15;;;4.40;;
63714;SDS011;49858;48.956;9.076;2023-02-08T14:53:03;7.97;;;4.57;;
63714;SDS011;49858;48.956;9.076;2023-02-08T14:55:43;7.85;;;4.30;;
63714;SDS011;49858;48.956;9.076;2023-02-08T14:58:18;9.95;;;4.72;;
63714;SDS011;49858;48.956;9.076;2023-02-08T15:00:52;11.70;;;5.85;;
63714;SDS011;49858;48.956;9.076;2023-02-08T15:03:22;10.85;;;5.03;;
63714;SDS011;49858;48.956;9.076;2023-02-08T15:09:10;10.00;;;5.55;;
63714;SDS011;49858;48.956;9.076;2023-02-08T15:11:42;10.45;;;5.00;;
63714;SDS011;49858;48.956;9.076;2023-02-08T15:14:17;10.02;;;4.90;;
63714;SDS011;49858;48.956;9.076;2023-02-08T15:16:46;11.07;;;5.47;;
63714;SDS011;49858;48.956;9.076;2023-02-08T15:19:18;10.00;;;4.88;;
63714;SDS011;49858;48.956;9.076;2023-02-08T15:21:49;10.95;;;5.95;;
63714;SDS011;49858;48.956;9.076;2023-02-08T15:24:19;11.52;;;5.53;;
63714;SDS011;49858;48.956;9.076;2023-02-08T15:26:52;12.95;;;6.03;;
63714;SDS011;49858;48.956;9.076;2023-02-08T15:29:22;11.13;;;5.25;;
63714;SDS011;49858;48.956;9.076;2023-02-08T15:32:08;7.68;;;4.70;;
63714;SDS011;49858;48.956;9.076;2023-02-08T15:34:40;11.90;;;6.35;;
63714;SDS011;49858;48.956;9.076;2023-02-08T15:37:11;12.05;;;5.07;;
63714;SDS011;49858;48.956;9.076;2023-02-08T15:39:45;8.48;;;5.32;;
63714;SDS011;49858;48.956;9.076;2023-02-08T15:42:17;12.20;;;5.93;;
63714;SDS011;49858;48.956;9.076;2023-02-08T15:44:46;11.63;;;5.82;;
63714;SDS011;49858;48.956;9.076;2023-02-08T15:47:15;11.88;;;6.10;;